Hanjin Santana — 3EYU3 — position and weather

sailwx.info

Track history (hours):
 
Tides and Currents Weather Stations Pressure Air Temp Water Temp Dewpoint Dewpoint Depression Visibility Wind Speed Wind Dir Waves Ship Positions

Hanjin Santana

Last reported at 2015-Feb-28 00:33 UTC. Time now 2015-Mar-03 12:42 UTC.
Position N 38°57' E 117°52'.

Length 196 m; draft 12.2 m.

Type: Cargo ship. MMSI: 373673000.

Date/timePositionNaut miles runAvg speedWind from/ knotsBaromVisibWave heightAir tempDewpointWater temp
2015-Feb-28 00:33N 38°57' E 117°52'6 5.6
2015-Feb-27 23:31N 38°59' E 117°45'0 0.0
2015-Feb-27 22:19N 38°59' E 117°45'0 0.0
2015-Feb-27 21:31N 38°59' E 117°45'0 0.0
2015-Feb-27 20:31N 38°59' E 117°45'0 0.0
2015-Feb-27 19:31N 38°59' E 117°45'0 0.0
2015-Feb-27 18:31N 38°59' E 117°45'0 0.0
2015-Feb-27 17:31N 38°59' E 117°45'0 0.0
2015-Feb-27 16:31N 38°59' E 117°45'0 0.0
2015-Feb-27 15:25N 38°59' E 117°45'0 0.0
2015-Feb-27 14:31N 38°59' E 117°45'0 0.0
2015-Feb-27 13:31N 38°59' E 117°45'0 0.0
2015-Feb-27 12:31N 38°59' E 117°45'0 0.0
2015-Feb-27 11:31N 38°59' E 117°45'0 0.0
2015-Feb-27 10:31N 38°59' E 117°45'0 0.0
2015-Feb-27 09:31N 38°59' E 117°45'0 0.0
2015-Feb-27 08:19N 38°59' E 117°45'0 0.0
2015-Feb-27 07:31N 38°59' E 117°45'0 0.0
2015-Feb-27 06:31N 38°59' E 117°45'0 0.0
2015-Feb-27 05:31N 38°59' E 117°45'0 0.0
2015-Feb-27 04:13N 38°59' E 117°45'0 0.0
2015-Feb-27 03:31N 38°59' E 117°45'0 0.0
2015-Feb-27 02:31N 38°59' E 117°45'0 0.0
2015-Feb-27 01:19N 38°59' E 117°45'0 0.0
2015-Feb-27 00:25N 38°59' E 117°45'0 0.0
2015-Feb-26 23:25N 38°59' E 117°45'0 0.0
2015-Feb-26 22:31N 38°59' E 117°45'0 0.0
2015-Feb-26 21:25N 38°59' E 117°45'0 0.0
2015-Feb-26 19:25N 38°59' E 117°45'0 0.0
2015-Feb-26 18:19N 38°59' E 117°45'0 0.0
2015-Feb-26 17:31N 38°59' E 117°45'0 0.0
2015-Feb-26 16:31N 38°59' E 117°45'0 0.0
2015-Feb-26 15:31N 38°59' E 117°45'0 0.0
2015-Feb-26 14:25N 38°59' E 117°45'0 0.0
2015-Feb-26 13:31N 38°59' E 117°45'0 0.0
2015-Feb-26 12:31N 38°59' E 117°45'0 0.0
2015-Feb-26 11:31N 38°59' E 117°45'2 2.4
2015-Feb-26 10:33N 38°58' E 117°47'1210.7
2015-Feb-26 09:26N 38°56' E 118°02'3 1.1
2015-Feb-26 06:29N 38°54' E 118°06'0 0.0
2015-Feb-26 05:23N 38°54' E 118°06'0 0.0
2015-Feb-26 04:29N 38°54' E 118°06'0 0.0
2015-Feb-26 02:23N 38°54' E 118°06'0 0.1
2015-Feb-25 21:23N 38°54' E 118°05'0 0.0
2015-Feb-25 19:23N 38°54' E 118°05'0 0.0
2015-Feb-25 17:29N 38°54' E 118°05'0 0.0
2015-Feb-25 16:29N 38°54' E 118°05'0 0.0
2015-Feb-25 14:05N 38°54' E 118°05'0 0.1
2015-Feb-25 13:05N 38°54' E 118°06'0 0.0
2015-Feb-25 12:29N 38°54' E 118°06'0 0.0
2015-Feb-25 07:17N 38°54' E 118°05'0 0.2
2015-Feb-25 06:28N 38°54' E 118°06'0 0.0
2015-Feb-25 05:29N 38°54' E 118°06'0 0.0
2015-Feb-25 04:22N 38°54' E 118°06'0 0.0
2015-Feb-25 03:28N 38°54' E 118°06'0 0.0
2015-Feb-25 02:29N 38°54' E 118°06'0 0.0
2015-Feb-25 01:29N 38°54' E 118°06'0 0.0
2015-Feb-25 00:23N 38°54' E 118°06'0 0.1
2015-Feb-24 23:10N 38°54' E 118°05'0 0.1
2015-Feb-24 22:05N 38°54' E 118°05'0 0.0
2015-Feb-24 21:17N 38°54' E 118°05'0 0.0
2015-Feb-24 18:17N 38°54' E 118°05'0 0.2
2015-Feb-24 17:29N 38°54' E 118°06'0 0.0
2015-Feb-24 16:22N 38°54' E 118°06'0 0.0
2015-Feb-24 13:16N 38°54' E 118°06'0 0.2
2015-Feb-24 12:28N 38°54' E 118°05'0 0.1
2015-Feb-24 10:24N 38°54' E 118°05'6 6.4
2015-Feb-24 09:27N 38°57' E 117°58'1010.9
2015-Feb-24 08:34N 38°58' E 117°46'1 1.3
2015-Feb-24 07:33N 38°59' E 117°45'0 0.0
2015-Feb-24 06:33N 38°59' E 117°45'0 0.0
2015-Feb-24 05:27N 38°59' E 117°45'0 0.0
2015-Feb-24 04:21N 38°59' E 117°45'0 0.0
2015-Feb-24 03:33N 38°59' E 117°45'0 0.0
2015-Feb-24 02:33N 38°59' E 117°45'0 0.0
2015-Feb-24 01:33N 38°59' E 117°45'0 0.0
2015-Feb-24 00:33N 38°59' E 117°45'0 0.0
2015-Feb-23 23:33N 38°59' E 117°45'0 0.0
2015-Feb-23 22:33N 38°59' E 117°45'0 0.0
2015-Feb-23 21:33N 38°59' E 117°45'0 0.0
2015-Feb-23 20:33N 38°59' E 117°45'0 0.0
2015-Feb-23 19:33N 38°59' E 117°45'0 0.0
2015-Feb-23 18:33N 38°59' E 117°45'0 0.0
2015-Feb-23 17:33N 38°59' E 117°45'0 0.0
2015-Feb-23 16:33N 38°59' E 117°45'0 0.0
2015-Feb-23 15:27N 38°59' E 117°45'0 0.0
2015-Feb-23 14:33N 38°59' E 117°45'0 0.0
2015-Feb-23 13:33N 38°59' E 117°45'0 0.0
2015-Feb-23 12:33N 38°59' E 117°45'0 0.0
2015-Feb-23 11:33N 38°59' E 117°45'0 0.0
2015-Feb-23 10:27N 38°59' E 117°45'0 0.0
2015-Feb-23 09:33N 38°59' E 117°45'0 0.0
2015-Feb-23 07:33N 38°59' E 117°45'0 0.0
2015-Feb-23 06:33N 38°59' E 117°45'0 0.0
2015-Feb-23 05:33N 38°59' E 117°45'0 0.0
2015-Feb-23 04:27N 38°59' E 117°45'0 0.0
2015-Feb-23 03:21N 38°59' E 117°45'0 0.0
2015-Feb-23 01:33N 38°59' E 117°45'0 0.0
2015-Feb-23 00:33N 38°59' E 117°45'0 0.0
2015-Feb-22 23:33N 38°59' E 117°45'0 0.0
2015-Feb-22 22:21N 38°59' E 117°45'0 0.0
2015-Feb-22 21:33N 38°59' E 117°45'0 0.0
2015-Feb-22 20:33N 38°59' E 117°45'0 0.0
2015-Feb-22 19:21N 38°59' E 117°45'0 0.0
2015-Feb-22 18:33N 38°59' E 117°45'0 0.0
2015-Feb-22 17:33N 38°59' E 117°45'0 0.0
2015-Feb-22 16:33N 38°59' E 117°45'0 0.0
2015-Feb-22 15:33N 38°59' E 117°45'0 0.0
2015-Feb-22 14:33N 38°59' E 117°45'0 0.0
2015-Feb-22 13:33N 38°59' E 117°45'1 0.6
2015-Feb-22 12:32N 38°59' E 117°44'0 0.0
2015-Feb-22 11:32N 38°59' E 117°44'0 0.0
2015-Feb-22 10:32N 38°59' E 117°44'0 0.0
2015-Feb-22 09:32N 38°59' E 117°44'0 0.0
2015-Feb-22 08:14N 38°59' E 117°44'0 0.0
2015-Feb-22 07:32N 38°59' E 117°44'0 0.0
2015-Feb-22 06:08N 38°59' E 117°44'0 0.0
2015-Feb-22 05:32N 38°59' E 117°44'0 0.0
2015-Feb-22 04:08N 38°59' E 117°44'0 0.0
2015-Feb-22 03:26N 38°59' E 117°44'0 0.0
2015-Feb-22 02:32N 38°59' E 117°44'0 0.0
2015-Feb-22 01:32N 38°59' E 117°44'0 0.0
2015-Feb-22 00:32N 38°59' E 117°44'0 0.0
2015-Feb-21 23:32N 38°59' E 117°44'0 0.0
2015-Feb-21 22:32N 38°59' E 117°44'0 0.0
2015-Feb-21 21:32N 38°59' E 117°44'0 0.0
2015-Feb-21 20:32N 38°59' E 117°44'0 0.0
2015-Feb-21 19:20N 38°59' E 117°44'0 0.0
2015-Feb-21 18:32N 38°59' E 117°44'0 0.0
2015-Feb-21 17:32N 38°59' E 117°44'0 0.0
2015-Feb-21 16:32N 38°59' E 117°44'0 0.0
2015-Feb-21 15:26N 38°59' E 117°44'0 0.0
2015-Feb-21 14:26N 38°59' E 117°44'0 0.0
2015-Feb-21 13:32N 38°59' E 117°44'0 0.0
2015-Feb-21 12:26N 38°59' E 117°44'0 0.0
2015-Feb-21 11:32N 38°59' E 117°44'0 0.0
2015-Feb-21 10:26N 38°59' E 117°44'0 0.0
2015-Feb-21 09:32N 38°59' E 117°44'0 0.0
2015-Feb-21 08:26N 38°59' E 117°44'0 0.0
2015-Feb-21 07:20N 38°59' E 117°44'0 0.0
2015-Feb-21 05:32N 38°59' E 117°44'0 0.0
2015-Feb-21 04:32N 38°59' E 117°44'0 0.0
2015-Feb-21 03:26N 38°59' E 117°44'0 0.0
2015-Feb-21 02:32N 38°59' E 117°44'0 0.0
2015-Feb-21 01:32N 38°59' E 117°44'0 0.0
2015-Feb-21 00:32N 38°59' E 117°44'0 0.0
2015-Feb-20 23:32N 38°59' E 117°44'0 0.0
2015-Feb-20 22:32N 38°59' E 117°44'0 0.0
2015-Feb-20 21:26N 38°59' E 117°44'0 0.0
2015-Feb-20 20:32N 38°59' E 117°44'0 0.0
2015-Feb-20 19:26N 38°59' E 117°44'0 0.0
2015-Feb-20 18:32N 38°59' E 117°44'0 0.0
2015-Feb-20 17:32N 38°59' E 117°44'0 0.0
2015-Feb-20 16:32N 38°59' E 117°44'0 0.0
2015-Feb-20 15:32N 38°59' E 117°44'0 0.0
2015-Feb-20 14:32N 38°59' E 117°44'0 0.0
2015-Feb-20 13:32N 38°59' E 117°44'0 0.0
2015-Feb-20 12:32N 38°59' E 117°44'0 0.0
2015-Feb-20 11:32N 38°59' E 117°44'0 0.0
2015-Feb-20 10:32N 38°59' E 117°44'0 0.0
2015-Feb-20 09:32N 38°59' E 117°44'0 0.0
2015-Feb-20 08:32N 38°59' E 117°44'0 0.0
2015-Feb-20 07:32N 38°59' E 117°44'0 0.0
2015-Feb-20 06:32N 38°59' E 117°44'0 0.0
2015-Feb-20 05:32N 38°59' E 117°44'0 0.0
2015-Feb-20 04:32N 38°59' E 117°44'0 0.0
2015-Feb-20 03:32N 38°59' E 117°44'0 0.0
2015-Feb-20 02:32N 38°59' E 117°44'0 0.0
2015-Feb-20 01:26N 38°59' E 117°44'0 0.0
2015-Feb-20 00:32N 38°59' E 117°44'0 0.0
2015-Feb-19 23:32N 38°59' E 117°44'0 0.0
2015-Feb-19 22:32N 38°59' E 117°44'0 0.0
2015-Feb-19 21:20N 38°59' E 117°44'0 0.0
2015-Feb-19 20:32N 38°59' E 117°44'0 0.0
2015-Feb-19 19:32N 38°59' E 117°44'0 0.0
2015-Feb-19 18:32N 38°59' E 117°44'0 0.0
2015-Feb-19 17:32N 38°59' E 117°44'0 0.0
2015-Feb-19 16:32N 38°59' E 117°44'0 0.0
2015-Feb-19 15:32N 38°59' E 117°44'0 0.0
2015-Feb-19 14:32N 38°59' E 117°44'0 0.0
2015-Feb-19 13:26N 38°59' E 117°44'0 0.0
2015-Feb-19 12:32N 38°59' E 117°44'0 0.0
2015-Feb-19 11:26N 38°59' E 117°44'0 0.1
2015-Feb-19 10:32N 38°59' E 117°44'0 0.0
2015-Feb-19 09:32N 38°59' E 117°44'0 0.0
2015-Feb-19 08:32N 38°59' E 117°44'0 0.0
2015-Feb-19 07:32N 38°59' E 117°44'0 0.0
2015-Feb-19 06:26N 38°59' E 117°44'0 0.0
2015-Feb-19 05:32N 38°59' E 117°44'0 0.0
2015-Feb-19 04:32N 38°59' E 117°44'0 0.0
2015-Feb-19 03:20N 38°59' E 117°44'0 0.0
2015-Feb-19 02:32N 38°59' E 117°44'0 0.0
2015-Feb-19 01:26N 38°59' E 117°44'0 0.0
2015-Feb-19 00:26N 38°59' E 117°44'0 0.0
2015-Feb-18 23:32N 38°59' E 117°44'0 0.0
2015-Feb-18 22:32N 38°59' E 117°44'0 0.0
2015-Feb-18 21:32N 38°59' E 117°44'0 0.0
2015-Feb-18 20:32N 38°59' E 117°44'0 0.0
2015-Feb-18 19:32N 38°59' E 117°44'0 0.0
2015-Feb-18 18:32N 38°59' E 117°44'0 0.0
2015-Feb-18 17:32N 38°59' E 117°44'0 0.0
2015-Feb-18 16:26N 38°59' E 117°44'0 0.0
2015-Feb-18 15:32N 38°59' E 117°44'0 0.0
2015-Feb-18 14:32N 38°59' E 117°44'0 0.0
2015-Feb-18 13:32N 38°59' E 117°44'0 0.0
2015-Feb-18 12:32N 38°59' E 117°44'0 0.0
2015-Feb-18 11:26N 38°59' E 117°44'0 0.0
2015-Feb-18 10:32N 38°59' E 117°44'0 0.0
2015-Feb-18 09:26N 38°59' E 117°44'0 0.0
2015-Feb-18 08:32N 38°59' E 117°44'0 0.0
2015-Feb-18 07:32N 38°59' E 117°44'0 0.0
2015-Feb-18 06:32N 38°59' E 117°44'0 0.0
2015-Feb-18 05:32N 38°59' E 117°44'0 0.0
2015-Feb-18 04:32N 38°59' E 117°44'0 0.0
2015-Feb-18 03:32N 38°59' E 117°44'0 0.0
2015-Feb-18 02:26N 38°59' E 117°44'0 0.0
2015-Feb-18 01:26N 38°59' E 117°44'  
Track history (hours):
 
Tides and Currents Weather Stations Pressure Air Temp Water Temp Dewpoint Dewpoint Depression Visibility Wind Speed Wind Dir Waves Ship Positions

Hanjin Santana

Last reported at 2015-Feb-28 00:33 UTC. Time now 2015-Mar-03 12:42 UTC.
Position N 38°57' E 117°52'.

Length 196 m; draft 12.2 m.

Type: Cargo ship. MMSI: 373673000.

Date/timePositionNaut miles runAvg speedWind from/ knotsBaromVisibWave heightAir tempDewpointWater temp
2015-Feb-28 00:33N 38°57' E 117°52'6 5.6
2015-Feb-27 23:31N 38°59' E 117°45'0 0.0
2015-Feb-27 22:19N 38°59' E 117°45'0 0.0
2015-Feb-27 21:31N 38°59' E 117°45'0 0.0
2015-Feb-27 20:31N 38°59' E 117°45'0 0.0
2015-Feb-27 19:31N 38°59' E 117°45'0 0.0
2015-Feb-27 18:31N 38°59' E 117°45'0 0.0
2015-Feb-27 17:31N 38°59' E 117°45'0 0.0
2015-Feb-27 16:31N 38°59' E 117°45'0 0.0
2015-Feb-27 15:25N 38°59' E 117°45'0 0.0
2015-Feb-27 14:31N 38°59' E 117°45'0 0.0
2015-Feb-27 13:31N 38°59' E 117°45'0 0.0
2015-Feb-27 12:31N 38°59' E 117°45'0 0.0
2015-Feb-27 11:31N 38°59' E 117°45'0 0.0
2015-Feb-27 10:31N 38°59' E 117°45'0 0.0
2015-Feb-27 09:31N 38°59' E 117°45'0 0.0
2015-Feb-27 08:19N 38°59' E 117°45'0 0.0
2015-Feb-27 07:31N 38°59' E 117°45'0 0.0
2015-Feb-27 06:31N 38°59' E 117°45'0 0.0
2015-Feb-27 05:31N 38°59' E 117°45'0 0.0
2015-Feb-27 04:13N 38°59' E 117°45'0 0.0
2015-Feb-27 03:31N 38°59' E 117°45'0 0.0
2015-Feb-27 02:31N 38°59' E 117°45'0 0.0
2015-Feb-27 01:19N 38°59' E 117°45'0 0.0
2015-Feb-27 00:25N 38°59' E 117°45'0 0.0
2015-Feb-26 23:25N 38°59' E 117°45'0 0.0
2015-Feb-26 22:31N 38°59' E 117°45'0 0.0
2015-Feb-26 21:25N 38°59' E 117°45'0 0.0
2015-Feb-26 19:25N 38°59' E 117°45'0 0.0
2015-Feb-26 18:19N 38°59' E 117°45'0 0.0
2015-Feb-26 17:31N 38°59' E 117°45'0 0.0
2015-Feb-26 16:31N 38°59' E 117°45'0 0.0
2015-Feb-26 15:31N 38°59' E 117°45'0 0.0
2015-Feb-26 14:25N 38°59' E 117°45'0 0.0
2015-Feb-26 13:31N 38°59' E 117°45'0 0.0
2015-Feb-26 12:31N 38°59' E 117°45'0 0.0
2015-Feb-26 11:31N 38°59' E 117°45'2 2.4
2015-Feb-26 10:33N 38°58' E 117°47'1210.7
2015-Feb-26 09:26N 38°56' E 118°02'3 1.1
2015-Feb-26 06:29N 38°54' E 118°06'0 0.0
2015-Feb-26 05:23N 38°54' E 118°06'0 0.0
2015-Feb-26 04:29N 38°54' E 118°06'0 0.0
2015-Feb-26 02:23N 38°54' E 118°06'0 0.1
2015-Feb-25 21:23N 38°54' E 118°05'0 0.0
2015-Feb-25 19:23N 38°54' E 118°05'0 0.0
2015-Feb-25 17:29N 38°54' E 118°05'0 0.0
2015-Feb-25 16:29N 38°54' E 118°05'0 0.0
2015-Feb-25 14:05N 38°54' E 118°05'0 0.1
2015-Feb-25 13:05N 38°54' E 118°06'0 0.0
2015-Feb-25 12:29N 38°54' E 118°06'0 0.0
2015-Feb-25 07:17N 38°54' E 118°05'0 0.2
2015-Feb-25 06:28N 38°54' E 118°06'0 0.0
2015-Feb-25 05:29N 38°54' E 118°06'0 0.0
2015-Feb-25 04:22N 38°54' E 118°06'0 0.0
2015-Feb-25 03:28N 38°54' E 118°06'0 0.0
2015-Feb-25 02:29N 38°54' E 118°06'0 0.0
2015-Feb-25 01:29N 38°54' E 118°06'0 0.0
2015-Feb-25 00:23N 38°54' E 118°06'0 0.1
2015-Feb-24 23:10N 38°54' E 118°05'0 0.1
2015-Feb-24 22:05N 38°54' E 118°05'0 0.0
2015-Feb-24 21:17N 38°54' E 118°05'0 0.0
2015-Feb-24 18:17N 38°54' E 118°05'0 0.2
2015-Feb-24 17:29N 38°54' E 118°06'0 0.0
2015-Feb-24 16:22N 38°54' E 118°06'0 0.0
2015-Feb-24 13:16N 38°54' E 118°06'0 0.2
2015-Feb-24 12:28N 38°54' E 118°05'0 0.1
2015-Feb-24 10:24N 38°54' E 118°05'6 6.4
2015-Feb-24 09:27N 38°57' E 117°58'1010.9
2015-Feb-24 08:34N 38°58' E 117°46'1 1.3
2015-Feb-24 07:33N 38°59' E 117°45'0 0.0
2015-Feb-24 06:33N 38°59' E 117°45'0 0.0
2015-Feb-24 05:27N 38°59' E 117°45'0 0.0
2015-Feb-24 04:21N 38°59' E 117°45'0 0.0
2015-Feb-24 03:33N 38°59' E 117°45'0 0.0
2015-Feb-24 02:33N 38°59' E 117°45'0 0.0
2015-Feb-24 01:33N 38°59' E 117°45'0 0.0
2015-Feb-24 00:33N 38°59' E 117°45'0 0.0
2015-Feb-23 23:33N 38°59' E 117°45'0 0.0
2015-Feb-23 22:33N 38°59' E 117°45'0 0.0
2015-Feb-23 21:33N 38°59' E 117°45'0 0.0
2015-Feb-23 20:33N 38°59' E 117°45'0 0.0
2015-Feb-23 19:33N 38°59' E 117°45'0 0.0
2015-Feb-23 18:33N 38°59' E 117°45'0 0.0
2015-Feb-23 17:33N 38°59' E 117°45'0 0.0
2015-Feb-23 16:33N 38°59' E 117°45'0 0.0
2015-Feb-23 15:27N 38°59' E 117°45'0 0.0
2015-Feb-23 14:33N 38°59' E 117°45'0 0.0
2015-Feb-23 13:33N 38°59' E 117°45'0 0.0
2015-Feb-23 12:33N 38°59' E 117°45'0 0.0
2015-Feb-23 11:33N 38°59' E 117°45'0 0.0
2015-Feb-23 10:27N 38°59' E 117°45'0 0.0
2015-Feb-23 09:33N 38°59' E 117°45'0 0.0
2015-Feb-23 07:33N 38°59' E 117°45'0 0.0
2015-Feb-23 06:33N 38°59' E 117°45'0 0.0
2015-Feb-23 05:33N 38°59' E 117°45'0 0.0
2015-Feb-23 04:27N 38°59' E 117°45'0 0.0
2015-Feb-23 03:21N 38°59' E 117°45'0 0.0
2015-Feb-23 01:33N 38°59' E 117°45'0 0.0
2015-Feb-23 00:33N 38°59' E 117°45'0 0.0
2015-Feb-22 23:33N 38°59' E 117°45'0 0.0
2015-Feb-22 22:21N 38°59' E 117°45'0 0.0
2015-Feb-22 21:33N 38°59' E 117°45'0 0.0
2015-Feb-22 20:33N 38°59' E 117°45'0 0.0
2015-Feb-22 19:21N 38°59' E 117°45'0 0.0
2015-Feb-22 18:33N 38°59' E 117°45'0 0.0
2015-Feb-22 17:33N 38°59' E 117°45'0 0.0
2015-Feb-22 16:33N 38°59' E 117°45'0 0.0
2015-Feb-22 15:33N 38°59' E 117°45'0 0.0
2015-Feb-22 14:33N 38°59' E 117°45'0 0.0
2015-Feb-22 13:33N 38°59' E 117°45'1 0.6
2015-Feb-22 12:32N 38°59' E 117°44'0 0.0
2015-Feb-22 11:32N 38°59' E 117°44'0 0.0
2015-Feb-22 10:32N 38°59' E 117°44'0 0.0
2015-Feb-22 09:32N 38°59' E 117°44'0 0.0
2015-Feb-22 08:14N 38°59' E 117°44'0 0.0
2015-Feb-22 07:32N 38°59' E 117°44'0 0.0
2015-Feb-22 06:08N 38°59' E 117°44'0 0.0
2015-Feb-22 05:32N 38°59' E 117°44'0 0.0
2015-Feb-22 04:08N 38°59' E 117°44'0 0.0
2015-Feb-22 03:26N 38°59' E 117°44'0 0.0
2015-Feb-22 02:32N 38°59' E 117°44'0 0.0
2015-Feb-22 01:32N 38°59' E 117°44'0 0.0
2015-Feb-22 00:32N 38°59' E 117°44'0 0.0
2015-Feb-21 23:32N 38°59' E 117°44'0 0.0
2015-Feb-21 22:32N 38°59' E 117°44'0 0.0
2015-Feb-21 21:32N 38°59' E 117°44'0 0.0
2015-Feb-21 20:32N 38°59' E 117°44'0 0.0
2015-Feb-21 19:20N 38°59' E 117°44'0 0.0
2015-Feb-21 18:32N 38°59' E 117°44'0 0.0
2015-Feb-21 17:32N 38°59' E 117°44'0 0.0
2015-Feb-21 16:32N 38°59' E 117°44'0 0.0
2015-Feb-21 15:26N 38°59' E 117°44'0 0.0
2015-Feb-21 14:26N 38°59' E 117°44'0 0.0
2015-Feb-21 13:32N 38°59' E 117°44'0 0.0
2015-Feb-21 12:26N 38°59' E 117°44'0 0.0
2015-Feb-21 11:32N 38°59' E 117°44'0 0.0
2015-Feb-21 10:26N 38°59' E 117°44'0 0.0
2015-Feb-21 09:32N 38°59' E 117°44'0 0.0
2015-Feb-21 08:26N 38°59' E 117°44'0 0.0
2015-Feb-21 07:20N 38°59' E 117°44'0 0.0
2015-Feb-21 05:32N 38°59' E 117°44'0 0.0
2015-Feb-21 04:32N 38°59' E 117°44'0 0.0
2015-Feb-21 03:26N 38°59' E 117°44'0 0.0
2015-Feb-21 02:32N 38°59' E 117°44'0 0.0
2015-Feb-21 01:32N 38°59' E 117°44'0 0.0
2015-Feb-21 00:32N 38°59' E 117°44'0 0.0
2015-Feb-20 23:32N 38°59' E 117°44'0 0.0
2015-Feb-20 22:32N 38°59' E 117°44'0 0.0
2015-Feb-20 21:26N 38°59' E 117°44'0 0.0
2015-Feb-20 20:32N 38°59' E 117°44'0 0.0
2015-Feb-20 19:26N 38°59' E 117°44'0 0.0
2015-Feb-20 18:32N 38°59' E 117°44'0 0.0
2015-Feb-20 17:32N 38°59' E 117°44'0 0.0
2015-Feb-20 16:32N 38°59' E 117°44'0 0.0
2015-Feb-20 15:32N 38°59' E 117°44'0 0.0
2015-Feb-20 14:32N 38°59' E 117°44'0 0.0
2015-Feb-20 13:32N 38°59' E 117°44'0 0.0
2015-Feb-20 12:32N 38°59' E 117°44'0 0.0
2015-Feb-20 11:32N 38°59' E 117°44'0 0.0
2015-Feb-20 10:32N 38°59' E 117°44'0 0.0
2015-Feb-20 09:32N 38°59' E 117°44'0 0.0
2015-Feb-20 08:32N 38°59' E 117°44'0 0.0
2015-Feb-20 07:32N 38°59' E 117°44'0 0.0
2015-Feb-20 06:32N 38°59' E 117°44'0 0.0
2015-Feb-20 05:32N 38°59' E 117°44'0 0.0
2015-Feb-20 04:32N 38°59' E 117°44'0 0.0
2015-Feb-20 03:32N 38°59' E 117°44'0 0.0
2015-Feb-20 02:32N 38°59' E 117°44'0 0.0
2015-Feb-20 01:26N 38°59' E 117°44'0 0.0
2015-Feb-20 00:32N 38°59' E 117°44'0 0.0
2015-Feb-19 23:32N 38°59' E 117°44'0 0.0
2015-Feb-19 22:32N 38°59' E 117°44'0 0.0
2015-Feb-19 21:20N 38°59' E 117°44'0 0.0
2015-Feb-19 20:32N 38°59' E 117°44'0 0.0
2015-Feb-19 19:32N 38°59' E 117°44'0 0.0
2015-Feb-19 18:32N 38°59' E 117°44'0 0.0
2015-Feb-19 17:32N 38°59' E 117°44'0 0.0
2015-Feb-19 16:32N 38°59' E 117°44'0 0.0
2015-Feb-19 15:32N 38°59' E 117°44'0 0.0
2015-Feb-19 14:32N 38°59' E 117°44'0 0.0
2015-Feb-19 13:26N 38°59' E 117°44'0 0.0
2015-Feb-19 12:32N 38°59' E 117°44'0 0.0
2015-Feb-19 11:26N 38°59' E 117°44'0 0.1
2015-Feb-19 10:32N 38°59' E 117°44'0 0.0
2015-Feb-19 09:32N 38°59' E 117°44'0 0.0
2015-Feb-19 08:32N 38°59' E 117°44'0 0.0
2015-Feb-19 07:32N 38°59' E 117°44'0 0.0
2015-Feb-19 06:26N 38°59' E 117°44'0 0.0
2015-Feb-19 05:32N 38°59' E 117°44'0 0.0
2015-Feb-19 04:32N 38°59' E 117°44'0 0.0
2015-Feb-19 03:20N 38°59' E 117°44'0 0.0
2015-Feb-19 02:32N 38°59' E 117°44'0 0.0
2015-Feb-19 01:26N 38°59' E 117°44'0 0.0
2015-Feb-19 00:26N 38°59' E 117°44'0 0.0
2015-Feb-18 23:32N 38°59' E 117°44'0 0.0
2015-Feb-18 22:32N 38°59' E 117°44'0 0.0
2015-Feb-18 21:32N 38°59' E 117°44'0 0.0
2015-Feb-18 20:32N 38°59' E 117°44'0 0.0
2015-Feb-18 19:32N 38°59' E 117°44'0 0.0
2015-Feb-18 18:32N 38°59' E 117°44'0 0.0
2015-Feb-18 17:32N 38°59' E 117°44'0 0.0
2015-Feb-18 16:26N 38°59' E 117°44'0 0.0
2015-Feb-18 15:32N 38°59' E 117°44'0 0.0
2015-Feb-18 14:32N 38°59' E 117°44'0 0.0
2015-Feb-18 13:32N 38°59' E 117°44'0 0.0
2015-Feb-18 12:32N 38°59' E 117°44'0 0.0
2015-Feb-18 11:26N 38°59' E 117°44'0 0.0
2015-Feb-18 10:32N 38°59' E 117°44'0 0.0
2015-Feb-18 09:26N 38°59' E 117°44'0 0.0
2015-Feb-18 08:32N 38°59' E 117°44'0 0.0
2015-Feb-18 07:32N 38°59' E 117°44'0 0.0
2015-Feb-18 06:32N 38°59' E 117°44'0 0.0
2015-Feb-18 05:32N 38°59' E 117°44'0 0.0
2015-Feb-18 04:32N 38°59' E 117°44'0 0.0
2015-Feb-18 03:32N 38°59' E 117°44'0 0.0
2015-Feb-18 02:26N 38°59' E 117°44'0 0.0
2015-Feb-18 01:26N 38°59' E 117°44'  

Dump ship's entire track history